sensor_id;sensor_type;location;lat;lon;timestamp;pressure;altitude;pressure_sealevel;temperature;humidity
55687;BME280;41911;52.362;4.978;2022-09-09T00:00:05;100707.28;;;16.37;50.38
55687;BME280;41911;52.362;4.978;2022-09-09T00:00:38;100708.22;;;16.40;50.72
55687;BME280;41911;52.362;4.978;2022-09-09T00:01:23;100709.53;;;16.39;50.47
55687;BME280;41911;52.362;4.978;2022-09-09T00:02:04;100710.61;;;16.79;50.21
55687;BME280;41911;52.362;4.978;2022-09-09T00:02:36;100712.35;;;16.94;50.13
55687;BME280;41911;52.362;4.978;2022-09-09T00:03:14;100716.65;;;16.63;49.93
55687;BME280;41911;52.362;4.978;2022-09-09T00:03:50;100713.84;;;16.51;50.17
55687;BME280;41911;52.362;4.978;2022-09-09T00:04:27;100714.41;;;16.56;50.10
55687;BME280;41911;52.362;4.978;2022-09-09T00:05:04;100712.73;;;16.70;49.96
55687;BME280;41911;52.362;4.978;2022-09-09T00:05:47;100710.12;;;16.73;49.65
55687;BME280;41911;52.362;4.978;2022-09-09T00:06:23;100709.76;;;16.41;49.92
55687;BME280;41911;52.362;4.978;2022-09-09T00:07:01;100708.54;;;16.68;49.67
55687;BME280;41911;52.362;4.978;2022-09-09T00:07:40;100709.14;;;16.95;49.19
55687;BME280;41911;52.362;4.978;2022-09-09T00:08:19;100706.60;;;16.67;49.47
55687;BME280;41911;52.362;4.978;2022-09-09T00:09:01;100709.14;;;16.86;49.16
55687;BME280;41911;52.362;4.978;2022-09-09T00:09:40;100706.52;;;16.82;49.35
55687;BME280;41911;52.362;4.978;2022-09-09T00:10:20;100705.83;;;16.74;49.27
55687;BME280;41911;52.362;4.978;2022-09-09T00:10:59;100705.23;;;16.71;49.44
55687;BME280;41911;52.362;4.978;2022-09-09T00:11:40;100702.45;;;16.72;49.40
55687;BME280;41911;52.362;4.978;2022-09-09T00:12:18;100701.58;;;16.81;49.29
55687;BME280;41911;52.362;4.978;2022-09-09T00:12:59;100703.84;;;17.12;49.46
55687;BME280;41911;52.362;4.978;2022-09-09T00:13:37;100701.99;;;16.38;49.81
55687;BME280;41911;52.362;4.978;2022-09-09T00:14:16;100700.04;;;16.71;49.98
55687;BME280;41911;52.362;4.978;2022-09-09T00:14:53;100702.08;;;16.73;49.62
55687;BME280;41911;52.362;4.978;2022-09-09T00:15:28;100703.76;;;16.77;50.12
55687;BME280;41911;52.362;4.978;2022-09-09T00:16:08;100699.72;;;16.65;50.27
55687;BME280;41911;52.362;4.978;2022-09-09T00:16:49;100698.44;;;16.15;50.57
55687;BME280;41911;52.362;4.978;2022-09-09T00:17:34;100698.39;;;17.17;50.01
55687;BME280;41911;52.362;4.978;2022-09-09T00:18:15;100701.28;;;16.41;50.19
55687;BME280;41911;52.362;4.978;2022-09-09T00:18:57;100701.22;;;16.67;49.98
55687;BME280;41911;52.362;4.978;2022-09-09T00:19:35;100697.21;;;16.85;49.81
55687;BME280;41911;52.362;4.978;2022-09-09T00:20:13;100697.43;;;16.74;49.69
55687;BME280;41911;52.362;4.978;2022-09-09T00:20:50;100694.63;;;16.50;49.43
55687;BME280;41911;52.362;4.978;2022-09-09T00:21:26;100694.34;;;16.44;49.78
55687;BME280;41911;52.362;4.978;2022-09-09T00:22:13;100694.21;;;16.77;49.61
55687;BME280;41911;52.362;4.978;2022-09-09T00:22:50;100695.83;;;16.77;49.63
55687;BME280;41911;52.362;4.978;2022-09-09T00:23:25;100694.65;;;16.49;49.49
55687;BME280;41911;52.362;4.978;2022-09-09T00:24:01;100697.26;;;16.83;49.46
55687;BME280;41911;52.362;4.978;2022-09-09T00:24:43;100696.56;;;16.90;49.27
55687;BME280;41911;52.362;4.978;2022-09-09T00:25:23;100698.85;;;16.54;49.38
55687;BME280;41911;52.362;4.978;2022-09-09T00:26:04;100694.55;;;16.75;49.60
55687;BME280;41911;52.362;4.978;2022-09-09T00:26:40;100692.78;;;16.75;49.45
55687;BME280;41911;52.362;4.978;2022-09-09T00:27:21;100692.74;;;16.79;49.46
55687;BME280;41911;52.362;4.978;2022-09-09T00:27:54;100695.64;;;16.54;49.41
55687;BME280;41911;52.362;4.978;2022-09-09T00:28:27;100696.18;;;16.84;49.43
55687;BME280;41911;52.362;4.978;2022-09-09T00:29:10;100694.64;;;17.17;49.31
55687;BME280;41911;52.362;4.978;2022-09-09T00:29:52;100694.02;;;16.53;49.44
55687;BME280;41911;52.362;4.978;2022-09-09T00:30:26;100693.04;;;16.72;49.52
55687;BME280;41911;52.362;4.978;2022-09-09T00:31:04;100693.55;;;16.79;49.50
55687;BME280;41911;52.362;4.978;2022-09-09T00:31:40;100691.52;;;16.73;49.51
55687;BME280;41911;52.362;4.978;2022-09-09T00:32:14;100694.06;;;16.76;49.60
55687;BME280;41911;52.362;4.978;2022-09-09T00:32:48;100690.02;;;16.77;49.44
55687;BME280;41911;52.362;4.978;2022-09-09T00:33:22;100693.17;;;16.66;49.69
55687;BME280;41911;52.362;4.978;2022-09-09T00:33:55;100695.18;;;16.70;49.68
55687;BME280;41911;52.362;4.978;2022-09-09T00:34:30;100693.52;;;16.58;49.71
55687;BME280;41911;52.362;4.978;2022-09-09T00:35:11;100693.32;;;16.39;49.66
55687;BME280;41911;52.362;4.978;2022-09-09T00:35:48;100692.24;;;16.41;49.55
55687;BME280;41911;52.362;4.978;2022-09-09T00:36:22;100694.25;;;16.61;49.68
55687;BME280;41911;52.362;4.978;2022-09-09T00:36:56;100695.83;;;16.66;49.73
55687;BME280;41911;52.362;4.978;2022-09-09T00:37:29;100691.53;;;16.52;49.47
55687;BME280;41911;52.362;4.978;2022-09-09T00:38:05;100691.53;;;16.77;49.57
55687;BME280;41911;52.362;4.978;2022-09-09T00:38:42;100690.56;;;16.75;49.48
55687;BME280;41911;52.362;4.978;2022-09-09T00:39:24;100693.59;;;17.06;49.61
55687;BME280;41911;52.362;4.978;2022-09-09T00:40:00;100694.79;;;16.82;49.50
55687;BME280;41911;52.362;4.978;2022-09-09T00:40:34;100693.70;;;16.85;49.43
55687;BME280;41911;52.362;4.978;2022-09-09T00:41:11;100695.07;;;16.74;49.54
55687;BME280;41911;52.362;4.978;2022-09-09T00:41:59;100695.09;;;16.90;49.33
55687;BME280;41911;52.362;4.978;2022-09-09T00:42:41;100697.66;;;16.80;49.54
55687;BME280;41911;52.362;4.978;2022-09-09T00:43:25;100697.62;;;16.53;49.37
55687;BME280;41911;52.362;4.978;2022-09-09T00:44:01;100693.04;;;16.71;49.71
55687;BME280;41911;52.362;4.978;2022-09-09T00:44:35;100694.66;;;16.72;49.66
55687;BME280;41911;52.362;4.978;2022-09-09T00:45:19;100695.16;;;16.63;49.57
55687;BME280;41911;52.362;4.978;2022-09-09T00:46:11;100692.32;;;16.30;49.63
55687;BME280;41911;52.362;4.978;2022-09-09T00:46:55;100695.83;;;16.61;49.49
55687;BME280;41911;52.362;4.978;2022-09-09T00:47:39;100697.62;;;16.49;49.64
55687;BME280;41911;52.362;4.978;2022-09-09T00:48:11;100696.60;;;16.40;49.56
55687;BME280;41911;52.362;4.978;2022-09-09T00:48:52;100695.82;;;16.69;49.63
55687;BME280;41911;52.362;4.978;2022-09-09T00:49:35;100695.87;;;16.46;50.03
55687;BME280;41911;52.362;4.978;2022-09-09T00:50:20;100696.81;;;16.38;49.98
55687;BME280;41911;52.362;4.978;2022-09-09T00:50:57;100696.17;;;16.53;49.93
55687;BME280;41911;52.362;4.978;2022-09-09T00:51:42;100693.97;;;16.28;50.29
55687;BME280;41911;52.362;4.978;2022-09-09T00:52:27;100691.91;;;16.23;50.46
55687;BME280;41911;52.362;4.978;2022-09-09T00:53:14;100695.05;;;16.33;50.63
55687;BME280;41911;52.362;4.978;2022-09-09T00:54:04;100696.33;;;16.73;49.99
55687;BME280;41911;52.362;4.978;2022-09-09T00:54:47;100693.92;;;16.59;50.26
55687;BME280;41911;52.362;4.978;2022-09-09T00:55:25;100698.78;;;16.61;50.07
55687;BME280;41911;52.362;4.978;2022-09-09T00:56:06;100698.89;;;16.92;49.98
55687;BME280;41911;52.362;4.978;2022-09-09T00:56:46;100699.00;;;16.71;49.73
55687;BME280;41911;52.362;4.978;2022-09-09T00:57:25;100699.50;;;16.84;49.43
55687;BME280;41911;52.362;4.978;2022-09-09T00:57:57;100696.11;;;16.56;49.66
55687;BME280;41911;52.362;4.978;2022-09-09T00:58:29;100697.39;;;16.59;49.71
55687;BME280;41911;52.362;4.978;2022-09-09T00:59:05;100696.93;;;16.58;49.62
55687;BME280;41911;52.362;4.978;2022-09-09T00:59:46;100694.31;;;16.54;49.83
55687;BME280;41911;52.362;4.978;2022-09-09T01:00:22;100694.30;;;16.36;49.68
55687;BME280;41911;52.362;4.978;2022-09-09T01:01:01;100693.52;;;16.45;49.87
55687;BME280;41911;52.362;4.978;2022-09-09T01:01:34;100694.00;;;16.52;49.96
55687;BME280;41911;52.362;4.978;2022-09-09T01:02:09;100693.63;;;16.78;49.94
55687;BME280;41911;52.362;4.978;2022-09-09T01:02:52;100697.08;;;16.78;50.13
55687;BME280;41911;52.362;4.978;2022-09-09T01:03:32;100694.89;;;16.38;50.21
55687;BME280;41911;52.362;4.978;2022-09-09T01:04:10;100693.40;;;16.09;50.66
55687;BME280;41911;52.362;4.978;2022-09-09T01:04:43;100690.20;;;16.16;50.50
55687;BME280;41911;52.362;4.978;2022-09-09T01:05:20;100690.01;;;16.22;50.55
55687;BME280;41911;52.362;4.978;2022-09-09T01:06:01;100687.35;;;16.50;50.50
55687;BME280;41911;52.362;4.978;2022-09-09T01:06:33;100687.23;;;16.86;50.42
55687;BME280;41911;52.362;4.978;2022-09-09T01:07:13;100687.40;;;16.27;50.43
55687;BME280;41911;52.362;4.978;2022-09-09T01:07:48;100684.06;;;16.19;50.54
55687;BME280;41911;52.362;4.978;2022-09-09T01:08:33;100684.32;;;16.29;50.56
55687;BME280;41911;52.362;4.978;2022-09-09T01:09:15;100682.02;;;16.32;50.44
55687;BME280;41911;52.362;4.978;2022-09-09T01:09:55;100681.90;;;16.23;50.47
55687;BME280;41911;52.362;4.978;2022-09-09T01:10:36;100682.61;;;16.61;50.34
55687;BME280;41911;52.362;4.978;2022-09-09T01:11:17;100685.45;;;16.49;50.26
55687;BME280;41911;52.362;4.978;2022-09-09T01:11:59;100685.32;;;16.43;50.32
55687;BME280;41911;52.362;4.978;2022-09-09T01:12:40;100687.61;;;16.55;50.14
55687;BME280;41911;52.362;4.978;2022-09-09T01:13:16;100687.33;;;16.13;50.41
55687;BME280;41911;52.362;4.978;2022-09-09T01:13:58;100688.81;;;16.32;50.40
55687;BME280;41911;52.362;4.978;2022-09-09T01:14:40;100690.42;;;16.47;50.17
55687;BME280;41911;52.362;4.978;2022-09-09T01:15:15;100686.28;;;16.35;50.21
55687;BME280;41911;52.362;4.978;2022-09-09T01:15:49;100689.30;;;16.11;50.15
55687;BME280;41911;52.362;4.978;2022-09-09T01:16:21;100685.30;;;16.24;50.29
55687;BME280;41911;52.362;4.978;2022-09-09T01:16:55;100683.46;;;16.23;50.27
55687;BME280;41911;52.362;4.978;2022-09-09T01:17:32;100684.66;;;16.28;50.26
55687;BME280;41911;52.362;4.978;2022-09-09T01:18:08;100682.32;;;16.62;50.41
55687;BME280;41911;52.362;4.978;2022-09-09T01:18:45;100688.20;;;16.39;50.10
55687;BME280;41911;52.362;4.978;2022-09-09T01:19:23;100684.27;;;16.27;50.47
55687;BME280;41911;52.362;4.978;2022-09-09T01:20:04;100683.59;;;16.40;50.30
55687;BME280;41911;52.362;4.978;2022-09-09T01:20:43;100682.96;;;16.52;50.13
55687;BME280;41911;52.362;4.978;2022-09-09T01:21:20;100681.97;;;16.59;49.98
55687;BME280;41911;52.362;4.978;2022-09-09T01:22:03;100682.07;;;16.61;49.88
55687;BME280;41911;52.362;4.978;2022-09-09T01:22:43;100681.13;;;16.47;50.16
55687;BME280;41911;52.362;4.978;2022-09-09T01:23:32;100680.54;;;16.58;49.83
55687;BME280;41911;52.362;4.978;2022-09-09T01:24:21;100683.15;;;16.43;49.99
55687;BME280;41911;52.362;4.978;2022-09-09T01:25:14;100682.04;;;16.29;50.29
55687;BME280;41911;52.362;4.978;2022-09-09T01:26:13;100682.50;;;16.09;50.57
55687;BME280;41911;52.362;4.978;2022-09-09T01:26:47;100681.29;;;16.12;50.44
55687;BME280;41911;52.362;4.978;2022-09-09T01:27:20;100685.42;;;16.27;50.41
55687;BME280;41911;52.362;4.978;2022-09-09T01:27:55;100683.29;;;16.10;50.57
55687;BME280;41911;52.362;4.978;2022-09-09T01:28:28;100686.06;;;15.94;50.80
55687;BME280;41911;52.362;4.978;2022-09-09T01:29:00;100686.85;;;15.94;50.78
55687;BME280;41911;52.362;4.978;2022-09-09T01:29:31;100684.06;;;15.92;50.73
55687;BME280;41911;52.362;4.978;2022-09-09T01:30:07;100687.34;;;16.03;50.71
55687;BME280;41911;52.362;4.978;2022-09-09T01:30:41;100686.25;;;15.82;50.99
55687;BME280;41911;52.362;4.978;2022-09-09T01:31:17;100686.04;;;15.94;50.84
55687;BME280;41911;52.362;4.978;2022-09-09T01:31:53;100685.33;;;16.10;50.72
55687;BME280;41911;52.362;4.978;2022-09-09T01:32:44;100684.74;;;16.02;50.82
55687;BME280;41911;52.362;4.978;2022-09-09T01:33:17;100680.91;;;16.04;51.22
55687;BME280;41911;52.362;4.978;2022-09-09T01:33:49;100680.70;;;16.16;51.01
55687;BME280;41911;52.362;4.978;2022-09-09T01:34:20;100676.60;;;16.26;50.88
55687;BME280;41911;52.362;4.978;2022-09-09T01:34:52;100676.85;;;16.40;50.59
55687;BME280;41911;52.362;4.978;2022-09-09T01:35:37;100676.63;;;16.46;50.77
55687;BME280;41911;52.362;4.978;2022-09-09T01:36:12;100677.14;;;16.02;50.87
55687;BME280;41911;52.362;4.978;2022-09-09T01:36:51;100677.55;;;15.92;51.06
55687;BME280;41911;52.362;4.978;2022-09-09T01:37:25;100676.14;;;16.07;50.74
55687;BME280;41911;52.362;4.978;2022-09-09T01:37:56;100676.89;;;16.05;50.81
55687;BME280;41911;52.362;4.978;2022-09-09T01:38:29;100675.89;;;16.08;50.78
55687;BME280;41911;52.362;4.978;2022-09-09T01:39:02;100672.42;;;16.08;50.88
55687;BME280;41911;52.362;4.978;2022-09-09T01:39:35;100673.44;;;16.18;50.83
55687;BME280;41911;52.362;4.978;2022-09-09T01:40:07;100673.44;;;16.30;50.59
55687;BME280;41911;52.362;4.978;2022-09-09T01:40:39;100673.96;;;16.44;50.37
55687;BME280;41911;52.362;4.978;2022-09-09T01:41:10;100675.97;;;16.41;50.26
55687;BME280;41911;52.362;4.978;2022-09-09T01:41:41;100675.87;;;16.41;50.23
55687;BME280;41911;52.362;4.978;2022-09-09T01:42:14;100674.99;;;16.16;50.48
55687;BME280;41911;52.362;4.978;2022-09-09T01:42:46;100674.86;;;16.37;50.78
55687;BME280;41911;52.362;4.978;2022-09-09T01:43:18;100678.42;;;15.77;51.19
55687;BME280;41911;52.362;4.978;2022-09-09T01:43:49;100679.48;;;15.76;51.16
55687;BME280;41911;52.362;4.978;2022-09-09T01:44:21;100674.62;;;15.80;51.30
55687;BME280;41911;52.362;4.978;2022-09-09T01:44:53;100676.58;;;15.80;50.99
55687;BME280;41911;52.362;4.978;2022-09-09T01:45:24;100676.38;;;16.13;51.00
55687;BME280;41911;52.362;4.978;2022-09-09T01:46:00;100676.05;;;15.87;51.24
55687;BME280;41911;52.362;4.978;2022-09-09T01:46:32;100674.29;;;16.59;51.01
55687;BME280;41911;52.362;4.978;2022-09-09T01:47:03;100676.61;;;16.13;51.23
55687;BME280;41911;52.362;4.978;2022-09-09T01:47:35;100676.77;;;16.57;50.94
55687;BME280;41911;52.362;4.978;2022-09-09T01:48:06;100677.24;;;16.44;50.80
55687;BME280;41911;52.362;4.978;2022-09-09T01:48:38;100678.33;;;16.63;50.87
55687;BME280;41911;52.362;4.978;2022-09-09T01:49:09;100679.37;;;16.35;50.85
55687;BME280;41911;52.362;4.978;2022-09-09T01:49:41;100676.02;;;15.90;51.02
55687;BME280;41911;52.362;4.978;2022-09-09T01:50:15;100676.73;;;15.88;50.96
55687;BME280;41911;52.362;4.978;2022-09-09T01:50:46;100677.42;;;16.54;50.94
55687;BME280;41911;52.362;4.978;2022-09-09T01:51:17;100675.87;;;15.88;50.99
55687;BME280;41911;52.362;4.978;2022-09-09T01:51:50;100677.50;;;15.95;50.90
55687;BME280;41911;52.362;4.978;2022-09-09T01:52:22;100675.11;;;15.92;51.05
55687;BME280;41911;52.362;4.978;2022-09-09T01:52:57;100672.43;;;16.38;50.88
55687;BME280;41911;52.362;4.978;2022-09-09T01:53:30;100672.43;;;16.26;50.89
55687;BME280;41911;52.362;4.978;2022-09-09T01:54:02;100670.03;;;15.99;50.95
55687;BME280;41911;52.362;4.978;2022-09-09T01:54:34;100670.80;;;15.97;50.90
55687;BME280;41911;52.362;4.978;2022-09-09T01:55:07;100671.47;;;15.80;50.91
55687;BME280;41911;52.362;4.978;2022-09-09T01:55:40;100669.88;;;16.01;50.99
55687;BME280;41911;52.362;4.978;2022-09-09T01:56:22;100669.90;;;16.14;50.77
55687;BME280;41911;52.362;4.978;2022-09-09T01:57:05;100670.89;;;16.12;50.86
55687;BME280;41911;52.362;4.978;2022-09-09T01:57:44;100671.88;;;16.13;50.78
55687;BME280;41911;52.362;4.978;2022-09-09T01:58:29;100669.65;;;16.23;51.09
55687;BME280;41911;52.362;4.978;2022-09-09T01:59:11;100668.79;;;16.59;51.09
55687;BME280;41911;52.362;4.978;2022-09-09T02:00:01;100668.05;;;16.63;50.94
55687;BME280;41911;52.362;4.978;2022-09-09T02:00:34;100663.53;;;16.28;50.83
55687;BME280;41911;52.362;4.978;2022-09-09T02:01:15;100663.74;;;16.16;50.63
55687;BME280;41911;52.362;4.978;2022-09-09T02:01:59;100663.22;;;16.15;50.61
55687;BME280;41911;52.362;4.978;2022-09-09T02:02:38;100661.83;;;16.35;50.84
55687;BME280;41911;52.362;4.978;2022-09-09T02:03:19;100658.76;;;16.72;50.72
55687;BME280;41911;52.362;4.978;2022-09-09T02:03:55;100660.84;;;16.46;50.78
55687;BME280;41911;52.362;4.978;2022-09-09T02:04:37;100662.08;;;16.35;50.48
55687;BME280;41911;52.362;4.978;2022-09-09T02:05:19;100661.40;;;16.25;50.53
55687;BME280;41911;52.362;4.978;2022-09-09T02:06:00;100661.19;;;16.28;50.72
55687;BME280;41911;52.362;4.978;2022-09-09T02:06:38;100661.59;;;16.44;50.52
55687;BME280;41911;52.362;4.978;2022-09-09T02:07:25;100664.20;;;16.49;50.27
55687;BME280;41911;52.362;4.978;2022-09-09T02:08:06;100665.49;;;16.91;50.18
55687;BME280;41911;52.362;4.978;2022-09-09T02:08:42;100664.11;;;16.53;50.24
55687;BME280;41911;52.362;4.978;2022-09-09T02:09:21;100663.41;;;16.80;49.96
55687;BME280;41911;52.362;4.978;2022-09-09T02:09:58;100661.34;;;16.65;49.94
55687;BME280;41911;52.362;4.978;2022-09-09T02:10:40;100661.59;;;16.84;49.76
55687;BME280;41911;52.362;4.978;2022-09-09T02:11:16;100664.20;;;16.91;49.70
55687;BME280;41911;52.362;4.978;2022-09-09T02:11:54;100662.75;;;16.55;49.60
55687;BME280;41911;52.362;4.978;2022-09-09T02:12:28;100663.02;;;16.86;49.45
55687;BME280;41911;52.362;4.978;2022-09-09T02:13:04;100662.40;;;16.71;49.58
55687;BME280;41911;52.362;4.978;2022-09-09T02:13:37;100663.16;;;16.98;49.51
55687;BME280;41911;52.362;4.978;2022-09-09T02:14:16;100663.76;;;17.02;49.55
55687;BME280;41911;52.362;4.978;2022-09-09T02:14:52;100661.26;;;17.23;49.16
55687;BME280;41911;52.362;4.978;2022-09-09T02:15:30;100661.02;;;16.88;49.30
55687;BME280;41911;52.362;4.978;2022-09-09T02:16:08;100663.52;;;17.15;49.24
55687;BME280;41911;52.362;4.978;2022-09-09T02:16:44;100663.26;;;17.03;49.30
55687;BME280;41911;52.362;4.978;2022-09-09T02:17:24;100664.43;;;16.64;49.34
55687;BME280;41911;52.362;4.978;2022-09-09T02:18:00;100660.82;;;16.67;49.33
55687;BME280;41911;52.362;4.978;2022-09-09T02:18:37;100662.19;;;16.93;49.39
55687;BME280;41911;52.362;4.978;2022-09-09T02:19:16;100660.37;;;16.94;49.35
55687;BME280;41911;52.362;4.978;2022-09-09T02:19:53;100662.28;;;16.78;49.49
55687;BME280;41911;52.362;4.978;2022-09-09T02:20:32;100662.28;;;16.62;49.43
55687;BME280;41911;52.362;4.978;2022-09-09T02:21:03;100662.68;;;16.96;49.26
55687;BME280;41911;52.362;4.978;2022-09-09T02:21:36;100659.69;;;16.78;49.07
55687;BME280;41911;52.362;4.978;2022-09-09T02:22:07;100663.89;;;16.93;49.43
55687;BME280;41911;52.362;4.978;2022-09-09T02:22:40;100660.09;;;16.59;49.27
55687;BME280;41911;52.362;4.978;2022-09-09T02:23:14;100659.69;;;16.63;49.31
55687;BME280;41911;52.362;4.978;2022-09-09T02:23:47;100657.30;;;16.92;49.25
55687;BME280;41911;52.362;4.978;2022-09-09T02:24:20;100658.05;;;16.96;49.30
55687;BME280;41911;52.362;4.978;2022-09-09T02:24:56;100653.44;;;17.13;49.02
55687;BME280;41911;52.362;4.978;2022-09-09T02:25:29;100654.92;;;16.95;49.03
55687;BME280;41911;52.362;4.978;2022-09-09T02:26:02;100653.04;;;16.63;49.16
55687;BME280;41911;52.362;4.978;2022-09-09T02:26:35;100650.91;;;16.80;49.06
55687;BME280;41911;52.362;4.978;2022-09-09T02:27:10;100649.72;;;16.90;48.88
55687;BME280;41911;52.362;4.978;2022-09-09T02:27:43;100648.63;;;16.51;48.83
55687;BME280;41911;52.362;4.978;2022-09-09T02:28:17;100648.46;;;17.06;48.94
55687;BME280;41911;52.362;4.978;2022-09-09T02:28:50;100650.45;;;16.62;49.24
55687;BME280;41911;52.362;4.978;2022-09-09T02:29:28;100649.12;;;16.76;49.19
55687;BME280;41911;52.362;4.978;2022-09-09T02:30:01;100649.75;;;16.80;49.36
55687;BME280;41911;52.362;4.978;2022-09-09T02:30:35;100649.33;;;16.52;49.33
55687;BME280;41911;52.362;4.978;2022-09-09T02:31:07;100650.58;;;16.70;49.59
55687;BME280;41911;52.362;4.978;2022-09-09T02:31:39;100650.38;;;16.82;49.42
55687;BME280;41911;52.362;4.978;2022-09-09T02:32:14;100650.33;;;16.76;49.55
55687;BME280;41911;52.362;4.978;2022-09-09T02:32:49;100650.69;;;16.94;49.26
55687;BME280;41911;52.362;4.978;2022-09-09T02:33:24;100651.75;;;16.89;49.16
55687;BME280;41911;52.362;4.978;2022-09-09T02:33:59;100651.24;;;16.92;49.30
55687;BME280;41911;52.362;4.978;2022-09-09T02:34:36;100650.07;;;16.70;49.27
55687;BME280;41911;52.362;4.978;2022-09-09T02:35:13;100650.66;;;16.69;49.17
55687;BME280;41911;52.362;4.978;2022-09-09T02:35:45;100649.24;;;16.73;49.03
55687;BME280;41911;52.362;4.978;2022-09-09T02:36:17;100652.53;;;17.20;48.92
55687;BME280;41911;52.362;4.978;2022-09-09T02:36:50;100651.91;;;16.81;48.84
55687;BME280;41911;52.362;4.978;2022-09-09T02:37:31;100653.39;;;17.19;48.91
55687;BME280;41911;52.362;4.978;2022-09-09T02:38:06;100652.91;;;16.86;48.90
55687;BME280;41911;52.362;4.978;2022-09-09T02:38:45;100656.08;;;16.89;49.27
55687;BME280;41911;52.362;4.978;2022-09-09T02:39:17;100654.22;;;16.83;49.02
55687;BME280;41911;52.362;4.978;2022-09-09T02:39:48;100653.91;;;16.69;49.04
55687;BME280;41911;52.362;4.978;2022-09-09T02:40:19;100653.47;;;17.07;48.92
55687;BME280;41911;52.362;4.978;2022-09-09T02:40:50;100652.16;;;17.12;48.88
55687;BME280;41911;52.362;4.978;2022-09-09T02:41:24;100655.79;;;17.22;48.87
55687;BME280;41911;52.362;4.978;2022-09-09T02:41:56;100656.41;;;16.83;48.95
55687;BME280;41911;52.362;4.978;2022-09-09T02:42:27;100652.20;;;17.02;48.98
55687;BME280;41911;52.362;4.978;2022-09-09T02:42:58;100654.36;;;16.73;48.95
55687;BME280;41911;52.362;4.978;2022-09-09T02:43:31;100655.07;;;16.79;48.81
55687;BME280;41911;52.362;4.978;2022-09-09T02:44:05;100653.40;;;16.91;48.69
55687;BME280;41911;52.362;4.978;2022-09-09T02:44:36;100654.54;;;17.09;48.76
55687;BME280;41911;52.362;4.978;2022-09-09T02:45:09;100652.36;;;16.92;48.77
55687;BME280;41911;52.362;4.978;2022-09-09T02:45:44;100651.01;;;16.92;48.73
55687;BME280;41911;52.362;4.978;2022-09-09T02:46:35;100651.91;;;17.29;48.46
55687;BME280;41911;52.362;4.978;2022-09-09T02:47:17;100650.33;;;16.93;48.39
55687;BME280;41911;52.362;4.978;2022-09-09T02:47:58;100650.60;;;16.87;48.49
55687;BME280;41911;52.362;4.978;2022-09-09T02:48:38;100652.18;;;17.09;48.42
55687;BME280;41911;52.362;4.978;2022-09-09T02:49:21;100648.97;;;16.92;48.35
55687;BME280;41911;52.362;4.978;2022-09-09T02:50:07;100647.47;;;16.91;48.41
55687;BME280;41911;52.362;4.978;2022-09-09T02:50:50;100646.67;;;16.77;48.59
55687;BME280;41911;52.362;4.978;2022-09-09T02:51:28;100648.92;;;16.86;48.24
55687;BME280;41911;52.362;4.978;2022-09-09T02:52:06;100647.39;;;16.69;48.21
55687;BME280;41911;52.362;4.978;2022-09-09T02:52:46;100646.33;;;16.87;48.05
55687;BME280;41911;52.362;4.978;2022-09-09T02:53:23;100645.34;;;16.92;47.98
55687;BME280;41911;52.362;4.978;2022-09-09T02:54:05;100643.50;;;16.90;48.13
55687;BME280;41911;52.362;4.978;2022-09-09T02:54:39;100642.79;;;16.87;48.14
55687;BME280;41911;52.362;4.978;2022-09-09T02:55:16;100642.94;;;16.79;48.23
55687;BME280;41911;52.362;4.978;2022-09-09T02:55:53;100644.28;;;16.81;48.08
55687;BME280;41911;52.362;4.978;2022-09-09T02:56:28;100644.60;;;16.90;48.05
55687;BME280;41911;52.362;4.978;2022-09-09T02:57:06;100645.57;;;16.72;48.18
55687;BME280;41911;52.362;4.978;2022-09-09T02:57:39;100646.66;;;16.60;48.44
55687;BME280;41911;52.362;4.978;2022-09-09T02:58:13;100642.81;;;16.73;48.21
55687;BME280;41911;52.362;4.978;2022-09-09T02:58:45;100643.14;;;16.70;48.25
55687;BME280;41911;52.362;4.978;2022-09-09T02:59:16;100643.65;;;16.68;48.26
55687;BME280;41911;52.362;4.978;2022-09-09T02:59:48;100645.53;;;16.54;48.40
55687;BME280;41911;52.362;4.978;2022-09-09T03:00:25;100644.43;;;16.58;48.34
55687;BME280;41911;52.362;4.978;2022-09-09T03:00:57;100644.04;;;16.59;48.37
55687;BME280;41911;52.362;4.978;2022-09-09T03:01:28;100640.53;;;16.62;48.25
55687;BME280;41911;52.362;4.978;2022-09-09T03:01:59;100642.33;;;16.70;48.24
55687;BME280;41911;52.362;4.978;2022-09-09T03:02:30;100645.18;;;16.82;48.51
55687;BME280;41911;52.362;4.978;2022-09-09T03:03:02;100645.00;;;16.72;48.52
55687;BME280;41911;52.362;4.978;2022-09-09T03:03:33;100647.62;;;16.47;48.41
55687;BME280;41911;52.362;4.978;2022-09-09T03:04:04;100650.99;;;16.88;48.38
55687;BME280;41911;52.362;4.978;2022-09-09T03:04:35;100649.85;;;16.85;48.23
55687;BME280;41911;52.362;4.978;2022-09-09T03:05:07;100650.28;;;16.53;48.23
55687;BME280;41911;52.362;4.978;2022-09-09T03:05:38;100648.17;;;16.63;48.12
55687;BME280;41911;52.362;4.978;2022-09-09T03:06:09;100647.60;;;16.91;47.96
55687;BME280;41911;52.362;4.978;2022-09-09T03:06:40;100646.07;;;16.98;47.90
55687;BME280;41911;52.362;4.978;2022-09-09T03:07:11;100647.55;;;16.57;47.93
55687;BME280;41911;52.362;4.978;2022-09-09T03:07:42;100647.37;;;16.82;48.09
55687;BME280;41911;52.362;4.978;2022-09-09T03:08:14;100647.69;;;16.62;48.12
55687;BME280;41911;52.362;4.978;2022-09-09T03:08:44;100645.77;;;16.32;48.11
55687;BME280;41911;52.362;4.978;2022-09-09T03:09:16;100644.26;;;16.74;47.88
55687;BME280;41911;52.362;4.978;2022-09-09T03:09:47;100647.14;;;16.86;48.04
55687;BME280;41911;52.362;4.978;2022-09-09T03:10:18;100646.61;;;16.54;48.19
55687;BME280;41911;52.362;4.978;2022-09-09T03:10:49;100647.45;;;16.54;48.19
55687;BME280;41911;52.362;4.978;2022-09-09T03:11:20;100644.51;;;16.80;48.22
55687;BME280;41911;52.362;4.978;2022-09-09T03:11:51;100648.08;;;16.44;48.26